Time;durP1;ratioP1;P1;durP2;ratioP2;P2;SDS_P1;SDS_P2;PMS_P1;PMS_P2;Temp;Humidity;BMP_temperature;BMP_pressure;BME280_temperature;BME280_humidity;BME280_pressure;Samples;Min_cycle;Max_cycle;Signal;HPM_P1;HPM_P2
2021/09/15 00:01:32;;;;;;;15.35;10.20;;;538.40;2176.00;;;;;;4888179;29;20059;-86
2021/09/15 00:03:58;;;;;;;20.05;10.10;;;538.40;2201.60;;;;;;4886967;29;20487;-79
2021/09/15 00:06:24;;;;;;;18.95;10.43;;;538.50;2176.00;;;;;;4884427;29;20043;-82
2021/09/15 00:08:50;;;;;;;15.55;10.23;;;538.40;2227.20;;;;;;4888962;29;20041;-78
2021/09/15 00:11:17;;;;;;;14.77;10.20;;;538.30;2227.20;;;;;;4891364;29;20033;-76
2021/09/15 00:13:43;;;;;;;14.63;10.02;;;538.30;2227.20;;;;;;4889428;29;20020;-84
2021/09/15 00:16:09;;;;;;;24.42;10.00;;;538.20;2227.20;;;;;;4889865;29;20101;-85
2021/09/15 00:18:35;;;;;;;14.63;9.68;;;538.20;2227.20;;;;;;4888872;29;20063;-78
2021/09/15 00:21:01;;;;;;;20.20;11.05;;;538.00;2252.80;;;;;;4902776;29;20402;-86
2021/09/15 00:23:26;;;;;;;18.10;10.55;;;538.00;2252.80;;;;;;4888321;29;20096;-85
2021/09/15 00:25:53;;;;;;;17.13;10.23;;;538.00;2278.40;;;;;;4890402;29;20029;-78
2021/09/15 00:28:18;;;;;;;15.90;10.07;;;538.00;2252.80;;;;;;4888105;29;20065;-77
2021/09/15 00:30:44;;;;;;;18.05;10.23;;;538.00;2252.80;;;;;;4888967;29;20065;-83
2021/09/15 00:33:10;;;;;;;16.25;10.55;;;537.90;2252.80;;;;;;4890554;29;20025;-79
2021/09/15 00:35:35;;;;;;;20.83;11.13;;;537.90;2252.80;;;;;;4887977;29;20033;-85
2021/09/15 00:38:01;;;;;;;19.15;10.95;;;538.00;2252.80;;;;;;4890480;29;20035;-77
2021/09/15 00:40:27;;;;;;;17.75;10.38;;;538.00;2252.80;;;;;;4887860;29;20587;-84
2021/09/15 00:42:53;;;;;;;21.67;10.38;;;538.00;2227.20;;;;;;4883922;29;20029;-82
2021/09/15 00:45:19;;;;;;;14.43;10.13;;;538.00;2252.80;;;;;;4888531;29;20125;-77
2021/09/15 00:47:44;;;;;;;13.35;10.05;;;537.80;2278.40;;;;;;4888558;29;20031;-83
2021/09/15 00:50:11;;;;;;;16.02;11.43;;;537.80;2252.80;;;;;;4890203;29;20056;-86
2021/09/15 00:52:36;;;;;;;17.48;11.45;;;537.80;2278.40;;;;;;4890260;29;20075;-77
2021/09/15 00:55:02;;;;;;;14.23;10.40;;;537.80;2278.40;;;;;;4887704;29;20029;-81
2021/09/15 00:57:28;;;;;;;15.80;11.95;;;537.90;2252.80;;;;;;4889609;29;20077;-84
2021/09/15 00:59:54;;;;;;;18.88;11.90;;;537.80;2278.40;;;;;;4888078;29;20126;-84
2021/09/15 01:02:20;;;;;;;18.02;10.77;;;537.80;2252.80;;;;;;4887426;29;20044;-83
2021/09/15 01:04:45;;;;;;;16.85;11.48;;;537.80;2252.80;;;;;;4902149;29;20047;-84
2021/09/15 01:07:13;;;;;;;20.25;10.52;;;537.70;2278.40;;;;;;4891683;29;20029;-84
2021/09/15 01:09:39;;;;;;;18.05;11.70;;;537.80;2252.80;;;;;;4898752;29;20461;-82
2021/09/15 01:12:09;;;;;;;21.27;11.68;;;512.90;2252.80;;;;;;4889252;29;20041;-83
2021/09/15 01:14:38;;;;;;;16.85;11.27;;;512.90;2252.80;;;;;;4889650;29;20588;-77
2021/09/15 01:17:04;;;;;;;17.20;11.57;;;537.60;2278.40;;;;;;4888285;29;20021;-83
2021/09/15 01:19:29;;;;;;;16.60;11.05;;;537.60;2278.40;;;;;;4888070;29;20028;-81
2021/09/15 01:21:56;;;;;;;18.33;12.27;;;537.60;2278.40;;;;;;4887915;29;20025;-77
2021/09/15 01:24:24;;;;;;;15.60;10.60;;;537.60;2278.40;;;;;;4889289;29;20028;-79
2021/09/15 01:26:51;;;;;;;16.95;11.43;;;537.70;2252.80;;;;;;4889701;29;20538;-84
2021/09/15 01:29:23;;;;;;;16.70;11.25;;;512.90;2252.80;;;;;;4887434;29;20064;-88
2021/09/15 01:32:08;;;;;;;18.42;12.07;;;512.70;2278.40;;;;;;4889044;29;20021;-81
2021/09/15 01:34:36;;;;;;;15.32;11.10;;;512.80;2278.40;;;;;;4882345;29;20126;-90
2021/09/15 01:37:04;;;;;;;19.75;11.40;;;512.90;2252.80;;;;;;4889769;29;20021;-78
2021/09/15 01:39:29;;;;;;;21.55;11.55;;;512.90;2252.80;;;;;;4890463;29;20499;-77
2021/09/15 01:41:59;;;;;;;18.77;10.90;;;512.80;2252.80;;;;;;4888189;29;20021;-89
2021/09/15 01:44:35;;;;;;;16.83;10.95;;;512.60;2304.00;;;;;;4887699;29;20032;-88
2021/09/15 01:47:02;;;;;;;;;;;512.60;2304.00;;;;;;4883565;29;20033;-76
2021/09/15 01:49:29;;;;;;;23.60;12.27;;;512.80;2278.40;;;;;;4890420;29;19915;-85
2021/09/15 01:51:57;;;;;;;16.98;11.98;;;512.40;2304.00;;;;;;4889207;29;20025;-81
2021/09/15 01:54:23;;;;;;;18.58;11.35;;;512.20;2355.20;;;;;;4891656;29;20031;-77
2021/09/15 01:56:49;;;;;;;16.35;11.55;;;512.10;2355.20;;;;;;4888491;29;20076;-77
2021/09/15 01:59:15;;;;;;;19.67;12.48;;;487.30;2355.20;;;;;;4887385;29;20100;-85
2021/09/15 02:01:41;;;;;;;18.10;11.65;;;487.10;2380.80;;;;;;4888373;29;20475;-80
2021/09/15 02:04:06;;;;;;;15.70;10.73;;;487.00;2380.80;;;;;;4886923;29;20037;-84
2021/09/15 02:06:32;;;;;;;14.82;11.55;;;486.90;2380.80;;;;;;4887555;29;20017;-84
2021/09/15 02:08:58;;;;;;;18.38;12.68;;;486.80;2380.80;;;;;;4882715;29;20177;-84
2021/09/15 02:11:24;;;;;;;18.60;12.40;;;486.80;2380.80;;;;;;4880355;29;20040;-83
2021/09/15 02:13:50;;;;;;;17.83;13.18;;;486.80;2380.80;;;;;;4888711;29;20056;-77
2021/09/15 02:16:16;;;;;;;16.73;12.25;;;486.70;2380.80;;;;;;4887168;29;20493;-77
2021/09/15 02:18:41;;;;;;;24.75;12.95;;;486.70;2380.80;;;;;;4889056;29;20387;-77
2021/09/15 02:21:07;;;;;;;18.42;12.40;;;486.80;2380.80;;;;;;4889336;29;20508;-84
2021/09/15 02:23:33;;;;;;;20.52;12.43;;;486.70;2380.80;;;;;;4888483;29;20053;-84
2021/09/15 02:25:59;;;;;;;19.92;11.82;;;486.70;2380.80;;;;;;4886682;29;20069;-76
2021/09/15 02:28:25;;;;;;;18.33;11.90;;;486.70;2380.80;;;;;;4888444;29;20084;-76
2021/09/15 02:30:51;;;;;;;19.80;11.85;;;486.70;2380.80;;;;;;4888102;29;20502;-77
2021/09/15 02:33:16;;;;;;;15.50;10.90;;;486.70;2380.80;;;;;;4889596;29;20032;-77
2021/09/15 02:35:42;;;;;;;17.00;10.70;;;486.90;2380.80;;;;;;4890132;29;20380;-76
2021/09/15 02:38:08;;;;;;;19.05;10.77;;;487.00;2380.80;;;;;;4891554;29;20036;-88
2021/09/15 02:40:33;;;;;;;16.45;11.00;;;487.10;2380.80;;;;;;4890494;29;20021;-77
2021/09/15 02:42:59;;;;;;;16.73;12.07;;;487.20;2380.80;;;;;;4890389;29;20109;-76
2021/09/15 02:45:25;;;;;;;17.20;11.50;;;487.30;2380.80;;;;;;4894552;29;20021;-81
2021/09/15 02:47:51;;;;;;;17.13;11.80;;;512.10;2380.80;;;;;;4889967;29;20543;-88
2021/09/15 02:50:16;;;;;;;18.17;12.18;;;512.10;2380.80;;;;;;4892190;29;20499;-88
2021/09/15 02:52:42;;;;;;;18.67;13.05;;;512.20;2380.80;;;;;;4890114;29;20081;-75
2021/09/15 02:55:08;;;;;;;18.63;12.68;;;512.30;2380.80;;;;;;4891447;29;20029;-76
2021/09/15 02:57:34;;;;;;;15.95;12.73;;;512.40;2380.80;;;;;;4891500;29;20480;-86
2021/09/15 02:59:59;;;;;;;19.13;12.82;;;512.40;2380.80;;;;;;4912580;29;20427;-86
2021/09/15 03:02:25;;;;;;;17.27;12.07;;;512.30;2380.80;;;;;;4889323;29;20029;-77
2021/09/15 03:04:51;;;;;;;18.05;12.82;;;512.40;2380.80;;;;;;4890998;29;20029;-87
2021/09/15 03:07:17;;;;;;;17.67;12.65;;;512.50;2380.80;;;;;;4890005;29;20479;-86
2021/09/15 03:09:42;;;;;;;19.13;12.73;;;512.40;2380.80;;;;;;4892252;29;20030;-77
2021/09/15 03:12:08;;;;;;;18.17;12.55;;;512.50;2380.80;;;;;;4892754;29;20487;-77
2021/09/15 03:14:34;;;;;;;19.80;13.70;;;512.50;2380.80;;;;;;4892061;29;20035;-76
2021/09/15 03:16:59;;;;;;;19.42;11.93;;;512.40;2380.80;;;;;;4896748;29;20029;-86
2021/09/15 03:19:25;;;;;;;26.33;14.07;;;512.40;2380.80;;;;;;4898871;29;20092;-93
2021/09/15 03:21:51;;;;;;;15.85;13.32;;;512.40;2380.80;;;;;;4891503;29;20052;-77
2021/09/15 03:24:16;;;;;;;17.38;12.25;;;512.50;2380.80;;;;;;4889059;29;20554;-93
2021/09/15 03:26:42;;;;;;;21.08;12.55;;;512.50;2380.80;;;;;;4889166;29;20076;-77
2021/09/15 03:29:08;;;;;;;19.85;13.50;;;512.40;2380.80;;;;;;4889091;29;20092;-93
2021/09/15 03:31:34;;;;;;;27.95;14.70;;;512.40;2380.80;;;;;;4884704;29;20036;-76
2021/09/15 03:33:59;;;;;;;20.50;13.27;;;512.50;2380.80;;;;;;4891586;29;20068;-93
2021/09/15 03:36:25;;;;;;;22.02;14.60;;;512.40;2380.80;;;;;;4891606;29;20402;-92
2021/09/15 03:38:51;;;;;;;28.67;13.70;;;512.30;2380.80;;;;;;4890440;29;20531;-79
2021/09/15 03:41:17;;;;;;;21.88;12.63;;;512.40;2380.80;;;;;;4889777;29;20021;-76
2021/09/15 03:43:43;;;;;;;23.52;12.70;;;512.30;2380.80;;;;;;4891720;29;20021;-77
2021/09/15 03:46:08;;;;;;;21.15;12.77;;;512.20;2380.80;;;;;;4891222;29;20043;-85
2021/09/15 03:48:34;;;;;;;18.15;13.38;;;512.20;2380.80;;;;;;4887776;29;20032;-76
2021/09/15 03:51:00;;;;;;;22.33;13.40;;;512.20;2380.80;;;;;;4888527;29;20044;-77
2021/09/15 03:53:26;;;;;;;21.92;13.27;;;512.10;2380.80;;;;;;4893737;29;20072;-76
2021/09/15 03:55:52;;;;;;;21.17;13.75;;;512.10;2380.80;;;;;;4891501;29;20025;-78
2021/09/15 03:58:17;;;;;;;21.30;13.15;;;512.00;2380.80;;;;;;4887469;29;20053;-76
2021/09/15 04:00:43;;;;;;;20.05;13.02;;;512.00;2380.80;;;;;;4891412;29;20058;-77
2021/09/15 04:03:09;;;;;;;21.10;14.20;;;512.00;2380.80;;;;;;4890442;29;20100;-91
2021/09/15 04:05:34;;;;;;;19.33;12.93;;;512.00;2380.80;;;;;;4888277;29;20112;-76
2021/09/15 04:08:00;;;;;;;19.23;13.68;;;487.30;2380.80;;;;;;4891172;29;20029;-91
2021/09/15 04:10:26;;;;;;;49.80;15.00;;;487.30;2380.80;;;;;;4889273;29;20058;-90
2021/09/15 04:12:52;;;;;;;22.20;13.68;;;487.10;2380.80;;;;;;4892677;29;20525;-84
2021/09/15 04:15:17;;;;;;;18.55;13.20;;;487.10;2380.80;;;;;;4890479;29;20395;-91
2021/09/15 04:17:43;;;;;;;27.70;13.60;;;487.00;2380.80;;;;;;4888682;29;20020;-91
2021/09/15 04:20:09;;;;;;;18.25;13.13;;;487.10;2380.80;;;;;;4889490;29;20409;-90
2021/09/15 04:22:37;;;;;;;23.55;13.85;;;486.90;2380.80;;;;;;4891407;29;20029;-92
2021/09/15 04:33:16;;;;;;;21.55;12.90;;;486.90;2380.80;;;;;;4890797;29;20493;-92
2021/09/15 04:35:42;;;;;;;24.13;13.00;;;486.80;2380.80;;;;;;4888205;29;20119;-81
2021/09/15 04:38:08;;;;;;;25.95;13.23;;;486.70;2380.80;;;;;;4890991;29;20421;-80
2021/09/15 04:40:33;;;;;;;18.25;12.98;;;486.70;2380.80;;;;;;4890928;29;20021;-83
2021/09/15 04:42:59;;;;;;;24.40;13.00;;;486.70;2380.80;;;;;;4888237;29;20029;-79
2021/09/15 04:45:25;;;;;;;22.90;12.75;;;486.70;2380.80;;;;;;4889950;29;20013;-82
2021/09/15 04:47:51;;;;;;;26.38;16.00;;;486.70;2380.80;;;;;;4888364;29;20025;-83
2021/09/15 04:50:16;;;;;;;41.58;14.75;;;486.80;2380.80;;;;;;4888614;29;20044;-78
2021/09/15 04:52:42;;;;;;;24.45;14.60;;;486.90;2380.80;;;;;;4889949;29;20101;-81
2021/09/15 04:55:08;;;;;;;20.80;13.15;;;486.90;2380.80;;;;;;4902730;29;20032;-80
2021/09/15 04:57:34;;;;;;;23.65;12.55;;;486.90;2380.80;;;;;;4886921;29;20021;-77
2021/09/15 05:00:00;;;;;;;31.45;15.63;;;486.80;2380.80;;;;;;4888985;29;20035;-79
2021/09/15 05:02:26;;;;;;;34.95;14.40;;;486.80;2380.80;;;;;;4892939;29;20395;-77
2021/09/15 05:04:52;;;;;;;32.05;15.10;;;486.80;2380.80;;;;;;4888124;29;20041;-77
2021/09/15 05:07:17;;;;;;;37.00;17.88;;;486.70;2380.80;;;;;;4887161;29;20095;-79
2021/09/15 05:09:43;;;;;;;28.80;15.25;;;486.80;2380.80;;;;;;4883490;29;20140;-78
2021/09/15 05:12:09;;;;;;;20.70;12.73;;;486.70;2380.80;;;;;;4890774;29;20096;-80
2021/09/15 05:14:35;;;;;;;35.65;13.00;;;486.70;2380.80;;;;;;4888420;29;20025;-76
2021/09/15 05:17:01;;;;;;;25.05;13.90;;;486.70;2380.80;;;;;;4887886;29;20447;-77
2021/09/15 05:19:26;;;;;;;26.20;13.25;;;486.70;2380.80;;;;;;4887221;29;20056;-80
2021/09/15 05:21:52;;;;;;;29.20;15.30;;;486.70;2380.80;;;;;;4888897;29;20021;-85
2021/09/15 05:24:18;;;;;;;33.42;14.45;;;486.90;2380.80;;;;;;4883288;29;20051;-82
2021/09/15 05:26:43;;;;;;;28.60;14.02;;;487.00;2380.80;;;;;;4881442;29;20060;-80
2021/09/15 05:29:09;;;;;;;22.17;14.13;;;487.00;2380.80;;;;;;4878372;29;20044;-77
2021/09/15 05:31:35;;;;;;;26.33;15.60;;;487.10;2380.80;;;;;;4871662;29;20089;-77
2021/09/15 05:34:00;;;;;;;23.25;15.00;;;487.20;2380.80;;;;;;4878535;29;20105;-82
2021/09/15 05:36:26;;;;;;;71.40;29.75;;;487.30;2380.80;;;;;;4889647;29;20052;-80
2021/09/15 05:38:53;;;;;;;34.40;16.88;;;487.30;2380.80;;;;;;4897261;29;20031;-77
2021/09/15 05:41:19;;;;;;;30.33;14.57;;;512.20;2380.80;;;;;;4897421;29;20084;-82
2021/09/15 05:43:44;;;;;;;20.08;13.70;;;512.50;2380.80;;;;;;4897648;29;20036;-77
2021/09/15 05:46:10;;;;;;;16.67;12.60;;;512.60;2380.80;;;;;;4885129;29;20077;-76
2021/09/15 05:48:36;;;;;;;20.23;12.95;;;512.70;2380.80;;;;;;4879008;29;20060;-76
2021/09/15 05:51:02;;;;;;;27.70;14.55;;;512.90;2380.80;;;;;;4884461;29;20038;-78
2021/09/15 05:53:27;;;;;;;19.00;14.05;;;537.60;2406.40;;;;;;4908886;29;20083;-79
2021/09/15 05:55:53;;;;;;;16.95;13.27;;;537.70;2406.40;;;;;;4895019;29;20159;-75
2021/09/15 05:58:20;;;;;;;16.35;12.82;;;537.80;2406.40;;;;;;4897430;29;20502;-77
2021/09/15 06:00:46;;;;;;;27.52;14.48;;;537.90;2406.40;;;;;;4907686;29;20542;-75
2021/09/15 06:03:12;;;;;;;17.30;13.40;;;538.10;2406.40;;;;;;4897433;29;20024;-77
2021/09/15 06:05:38;;;;;;;21.65;13.63;;;538.20;2406.40;;;;;;4897254;29;20043;-77
2021/09/15 06:08:04;;;;;;;22.60;13.00;;;538.30;2406.40;;;;;;4903519;29;20111;-77
2021/09/15 06:10:30;;;;;;;20.40;12.23;;;538.40;2406.40;;;;;;4905659;29;20032;-79
2021/09/15 06:12:56;;;;;;;21.35;12.30;;;538.50;2406.40;;;;;;4918114;29;20040;-76
2021/09/15 06:15:21;;;;;;;20.55;13.63;;;563.20;2432.00;;;;;;4919994;29;20456;-76
2021/09/15 06:17:47;;;;;;;19.70;12.50;;;538.50;2406.40;;;;;;4919708;29;20501;-76
2021/09/15 06:20:14;;;;;;;24.27;10.85;;;563.30;2432.00;;;;;;4906541;29;20479;-76
2021/09/15 06:22:39;;;;;;;12.80;8.80;;;563.40;2355.20;;;;;;4919965;29;20024;-80
2021/09/15 06:25:06;;;;;;;16.88;9.73;;;563.60;2227.20;;;;;;4916614;29;20032;-77
2021/09/15 06:27:32;;;;;;;19.95;10.25;;;563.60;2252.80;;;;;;4919741;29;20034;-76
2021/09/15 06:29:58;;;;;;;19.85;10.80;;;563.70;2278.40;;;;;;4919053;29;20087;-76
2021/09/15 06:32:25;;;;;;;27.67;13.93;;;563.80;2278.40;;;;;;4906916;29;20104;-80
2021/09/15 06:34:51;;;;;;;20.95;14.15;;;563.70;2329.60;;;;;;4915233;29;20036;-76
2021/09/15 06:37:17;;;;;;;21.50;12.90;;;563.70;2304.00;;;;;;4906367;29;20098;-81
2021/09/15 06:39:43;;;;;;;20.85;12.75;;;563.70;2278.40;;;;;;4914164;29;20028;-82
2021/09/15 06:42:09;;;;;;;22.67;13.00;;;563.80;2278.40;;;;;;4934197;29;20052;-77
2021/09/15 06:44:35;;;;;;;22.00;12.05;;;563.90;2252.80;;;;;;4906408;29;20077;-77
2021/09/15 06:47:01;;;;;;;19.23;11.82;;;564.00;2252.80;;;;;;4891954;29;20538;-77
2021/09/15 06:49:27;;;;;;;18.55;11.45;;;564.10;2227.20;;;;;;4895474;29;20043;-77
2021/09/15 06:51:53;;;;;;;18.75;10.77;;;588.90;2227.20;;;;;;4900351;29;20084;-77
2021/09/15 06:54:19;;;;;;;15.32;10.57;;;589.10;2227.20;;;;;;4903080;29;20467;-81
2021/09/15 06:56:45;;;;;;;22.05;11.93;;;589.30;2201.60;;;;;;4900544;29;20040;-82
2021/09/15 06:59:11;;;;;;;14.88;10.00;;;589.30;2176.00;;;;;;4900268;29;20025;-77
2021/09/15 07:01:37;;;;;;;16.02;10.30;;;589.40;2124.80;;;;;;4900166;29;20029;-78
2021/09/15 07:04:03;;;;;;;17.50;11.07;;;589.60;2150.40;;;;;;4900244;29;20103;-77
2021/09/15 07:06:29;;;;;;;23.38;10.55;;;614.40;2099.20;;;;;;4900265;29;20024;-79
2021/09/15 07:08:55;;;;;;;20.63;9.88;;;614.60;2124.80;;;;;;4894743;29;20070;-78
2021/09/15 07:11:21;;;;;;;27.67;10.25;;;614.60;2073.60;;;;;;4897136;29;20044;-77
2021/09/15 07:13:47;;;;;;;22.90;10.98;;;614.80;2073.60;;;;;;4899906;29;20119;-76
2021/09/15 07:16:13;;;;;;;23.90;12.18;;;614.80;2073.60;;;;;;4900001;29;20040;-76
2021/09/15 07:18:39;;;;;;;15.55;9.80;;;614.80;2048.00;;;;;;4900279;29;20032;-81
2021/09/15 07:21:05;;;;;;;15.75;10.05;;;615.00;2022.40;;;;;;4910790;29;20031;-75
2021/09/15 07:23:31;;;;;;;18.75;11.15;;;615.10;2022.40;;;;;;4918807;29;20024;-76
2021/09/15 07:25:57;;;;;;;28.30;10.82;;;615.20;1996.80;;;;;;4918701;29;20021;-76
2021/09/15 07:28:23;;;;;;;18.52;9.88;;;615.30;2022.40;;;;;;4918511;29;20035;-76
2021/09/15 07:30:49;;;;;;;13.30;9.75;;;640.00;1996.80;;;;;;4918633;29;20032;-78
2021/09/15 07:33:15;;;;;;;21.25;9.07;;;640.20;1971.20;;;;;;4903940;29;20064;-78
2021/09/15 07:35:42;;;;;;;15.77;9.50;;;640.30;1945.60;;;;;;4918244;29;20028;-79
2021/09/15 07:38:09;;;;;;;15.30;9.52;;;640.20;1945.60;;;;;;4918493;29;20028;-77
2021/09/15 07:40:34;;;;;;;16.23;10.35;;;640.50;1945.60;;;;;;4919331;29;20024;-77
2021/09/15 07:43:00;;;;;;;14.65;9.38;;;640.50;1920.00;;;;;;4921351;29;20032;-80
2021/09/15 07:45:29;;;;;;;17.90;9.65;;;640.70;1894.40;;;;;;4919620;29;20060;-77
2021/09/15 07:47:55;;;;;;;17.45;9.95;;;640.70;1920.00;;;;;;4914042;29;20024;-76
2021/09/15 07:50:21;;;;;;;22.50;8.98;;;640.90;1920.00;;;;;;4918010;29;20036;-76
2021/09/15 07:52:47;;;;;;;14.23;9.30;;;640.90;1894.40;;;;;;4918264;29;20020;-76
2021/09/15 07:55:13;;;;;;;14.35;8.32;;;665.60;1868.80;;;;;;4892481;29;20423;-80
2021/09/15 07:57:43;;;;;;;18.63;8.25;;;665.70;1894.40;;;;;;4898532;29;20036;-79
2021/09/15 08:00:09;;;;;;;14.02;8.90;;;665.90;1894.40;;;;;;4899092;29;20035;-78
2021/09/15 08:02:35;;;;;;;11.75;8.38;;;665.90;1894.40;;;;;;4898634;29;20031;-79
2021/09/15 08:05:01;;;;;;;16.58;8.63;;;666.00;1817.60;;;;;;4900096;29;20033;-76
2021/09/15 08:07:26;;;;;;;21.95;8.77;;;666.00;1843.20;;;;;;4894415;29;20365;-82
2021/09/15 08:09:52;;;;;;;17.17;8.48;;;666.00;1868.80;;;;;;4898881;29;20107;-77
2021/09/15 08:12:18;;;;;;;20.65;8.88;;;666.10;1843.20;;;;;;4891031;29;20045;-78
2021/09/15 08:14:43;;;;;;;14.10;7.35;;;666.10;1817.60;;;;;;4898702;29;20475;-78
2021/09/15 08:17:09;;;;;;;18.17;8.15;;;666.20;1843.20;;;;;;4895852;29;20031;-77
2021/09/15 08:19:35;;;;;;;9.88;7.68;;;666.20;1817.60;;;;;;4901526;29;20428;-79
2021/09/15 08:22:01;;;;;;;10.65;7.45;;;666.20;1740.80;;;;;;4916924;29;20016;-78
2021/09/15 08:24:27;;;;;;;15.70;7.70;;;666.30;1766.40;;;;;;4907358;29;20032;-77
2021/09/15 08:26:52;;;;;;;11.70;7.00;;;666.40;1740.80;;;;;;4915040;29;20056;-81
2021/09/15 08:29:18;;;;;;;13.27;7.30;;;666.50;1740.80;;;;;;4909897;29;20044;-82
2021/09/15 08:31:44;;;;;;;9.32;6.75;;;666.50;1689.60;;;;;;4917429;29;20028;-77
2021/09/15 08:34:10;;;;;;;10.85;6.55;;;666.50;1715.20;;;;;;4917095;29;20036;-79
2021/09/15 08:36:36;;;;;;;11.57;6.47;;;691.20;1740.80;;;;;;4917343;29;20600;-79
2021/09/15 08:39:02;;;;;;;11.10;6.75;;;691.30;1689.60;;;;;;4917434;29;20279;-78
2021/09/15 08:41:28;;;;;;;15.55;7.10;;;691.30;1664.00;;;;;;4917543;29;20024;-83
2021/09/15 08:43:53;;;;;;;11.77;7.07;;;691.40;1689.60;;;;;;4904046;29;20127;-77
2021/09/15 08:46:21;;;;;;;17.98;7.25;;;691.50;1664.00;;;;;;4888574;29;20028;-78
2021/09/15 08:48:47;;;;;;;9.02;6.75;;;691.60;1664.00;;;;;;4889607;29;20384;-77
2021/09/15 08:51:16;;;;;;;10.60;6.57;;;691.60;1638.40;;;;;;4892343;29;20037;-80
2021/09/15 08:53:44;;;;;;;10.07;6.65;;;691.70;1638.40;;;;;;4889725;29;20032;-77
2021/09/15 08:56:11;;;;;;;13.52;6.18;;;691.80;1638.40;;;;;;4882254;29;20034;-76
2021/09/15 08:58:40;;;;;;;17.10;6.38;;;691.90;1638.40;;;;;;4886947;29;20032;-78
2021/09/15 09:01:18;;;;;;;8.20;6.47;;;716.80;1664.00;;;;;;4887214;29;20024;-78
2021/09/15 09:03:45;;;;;;;12.50;6.05;;;716.90;1587.20;;;;;;4887747;29;20029;-77
2021/09/15 09:06:15;;;;;;;9.48;6.05;;;716.90;1587.20;;;;;;4887076;29;20032;-77
2021/09/15 09:08:43;;;;;;;12.38;6.55;;;717.00;1638.40;;;;;;4888861;29;20082;-78
2021/09/15 09:11:10;;;;;;;11.90;7.07;;;717.10;1612.80;;;;;;4886503;29;21587;-77
2021/09/15 09:13:51;;;;;;;11.50;6.80;;;717.20;1587.20;;;;;;4887021;29;20036;-78
2021/09/15 09:16:20;;;;;;;6.55;5.13;;;717.30;1510.40;;;;;;4888665;29;20111;-77
2021/09/15 09:19:02;;;;;;;6.55;5.35;;;717.30;1536.00;;;;;;4895403;29;20099;-79
2021/09/15 09:21:31;;;;;;;12.40;6.20;;;717.40;1536.00;;;;;;4878902;29;20029;-78
2021/09/15 09:23:59;;;;;;;10.75;5.63;;;717.50;1536.00;;;;;;4886628;29;20496;-77
2021/09/15 09:26:55;;;;;;;11.20;6.03;;;717.70;1484.80;;;;;;4879511;29;20093;-77
2021/09/15 09:29:25;;;;;;;13.88;5.85;;;717.70;1459.20;;;;;;4832437;29;20048;-77
2021/09/15 09:32:09;;;;;;;23.33;7.45;;;742.40;1510.40;;;;;;4856439;29;20187;-79
2021/09/15 09:34:50;;;;;;;9.82;5.50;;;742.40;1484.80;;;;;;4841928;29;20573;-78
2021/09/15 09:37:21;;;;;;;11.10;5.80;;;742.50;1459.20;;;;;;4858861;29;20053;-77
2021/09/15 09:39:51;;;;;;;9.43;6.28;;;742.60;1459.20;;;;;;4858414;29;20041;-77
2021/09/15 09:42:23;;;;;;;10.07;5.63;;;742.80;1433.60;;;;;;4859565;29;20032;-77
2021/09/15 09:44:53;;;;;;;12.43;6.00;;;742.80;1408.00;;;;;;4860930;29;20037;-81
2021/09/15 09:47:23;;;;;;;6.82;5.85;;;742.90;1433.60;;;;;;4869129;29;20045;-76
2021/09/15 09:50:01;;;;;;;9.43;5.57;;;742.90;1433.60;;;;;;4866431;29;20034;-77
2021/09/15 09:52:27;;;;;;;9.40;6.15;;;743.10;1382.40;;;;;;4871106;29;20048;-76
2021/09/15 09:55:04;;;;;;;10.45;5.82;;;743.20;1382.40;;;;;;4870379;29;20037;-76
2021/09/15 09:57:30;;;;;;;11.57;5.97;;;743.30;1382.40;;;;;;4870214;29;20053;-78
2021/09/15 09:59:57;;;;;;;8.75;4.88;;;768.00;1382.40;;;;;;4869855;29;20487;-78
2021/09/15 10:02:23;;;;;;;13.98;6.05;;;768.10;1356.80;;;;;;4866290;29;20500;-78
2021/09/15 10:04:49;;;;;;;7.65;5.60;;;768.10;1382.40;;;;;;4872194;29;20041;-79
2021/09/15 10:07:16;;;;;;;9.20;6.07;;;768.40;1356.80;;;;;;4913794;29;20490;-78
2021/09/15 10:09:43;;;;;;;11.38;5.60;;;768.50;1331.20;;;;;;4900541;29;20562;-75
2021/09/15 10:12:11;;;;;;;9.02;6.00;;;768.70;1305.60;;;;;;4901252;29;20131;-76
2021/09/15 10:14:37;;;;;;;9.23;5.50;;;768.90;1280.00;;;;;;4895911;29;20025;-76
2021/09/15 10:17:11;;;;;;;9.77;5.30;;;793.70;1305.60;;;;;;4884172;29;20040;-76
2021/09/15 10:19:41;;;;;;;8.38;5.30;;;793.70;1331.20;;;;;;4901079;29;20033;-75
2021/09/15 10:22:08;;;;;;;8.57;5.60;;;793.90;1331.20;;;;;;4894593;29;20029;-77
2021/09/15 10:24:54;;;;;;;9.00;6.05;;;794.00;1305.60;;;;;;4875229;29;20021;-76
2021/09/15 10:27:23;;;;;;;9.55;5.82;;;794.10;1280.00;;;;;;4874836;29;20031;-75
2021/09/15 10:30:12;;;;;;;11.05;5.07;;;794.20;1254.40;;;;;;4881695;29;20125;-74
2021/09/15 10:32:50;;;;;;;7.57;5.07;;;794.50;1254.40;;;;;;4876744;29;20060;-76
2021/09/15 10:35:46;;;;;;;8.55;5.40;;;819.30;1228.80;;;;;;4882029;29;20029;-75
2021/09/15 10:38:12;;;;;;;9.02;5.50;;;819.40;1228.80;;;;;;4885466;29;20025;-73
2021/09/15 10:40:40;;;;;;;9.65;5.07;;;819.40;1228.80;;;;;;4900701;29;20042;-75
2021/09/15 10:43:39;;;;;;;7.82;5.60;;;819.40;1280.00;;;;;;4900649;29;20089;-75
2021/09/15 10:46:19;;;;;;;14.15;5.38;;;819.50;1228.80;;;;;;4891761;29;20037;-76
2021/09/15 10:48:46;;;;;;;10.60;5.38;;;819.70;1228.80;;;;;;4891634;29;20031;-76
2021/09/15 10:51:19;;;;;;;9.85;5.43;;;819.60;1228.80;;;;;;4890783;29;20071;-76
2021/09/15 10:53:45;;;;;;;14.60;5.55;;;819.80;1203.20;;;;;;4889826;29;20081;-75
2021/09/15 10:56:34;;;;;;;7.88;5.82;;;819.80;1228.80;;;;;;4885702;29;20073;-76
2021/09/15 10:59:00;;;;;;;8.93;5.75;;;819.90;1203.20;;;;;;4881489;29;20025;-76
2021/09/15 11:01:38;;;;;;;7.47;5.00;;;820.10;1177.60;;;;;;4873371;29;20067;-75
2021/09/15 11:04:03;;;;;;;12.18;5.35;;;820.10;1203.20;;;;;;4881557;29;20492;-75
2021/09/15 11:06:34;;;;;;;8.70;5.82;;;844.80;1203.20;;;;;;4881484;29;20040;-75
2021/09/15 11:09:01;;;;;;;15.32;5.75;;;844.90;1203.20;;;;;;4887858;29;20048;-75
2021/09/15 11:11:27;;;;;;;8.50;5.65;;;;;;;;;;4881318;29;20052;-75
2021/09/15 11:14:06;;;;;;;12.02;5.65;;;845.10;1177.60;;;;;;4883564;29;20031;-75
2021/09/15 11:16:37;;;;;;;9.82;5.10;;;845.20;1152.00;;;;;;4893990;29;20060;-76
2021/09/15 11:19:07;;;;;;;9.02;5.65;;;845.20;1152.00;;;;;;4899913;29;20144;-75
2021/09/15 11:21:37;;;;;;;7.90;5.13;;;845.30;1177.60;;;;;;4898170;29;20545;-75
2021/09/15 11:24:10;;;;;;;10.25;5.32;;;845.40;1177.60;;;;;;4889974;29;20486;-75
2021/09/15 11:26:41;;;;;;;5.32;4.78;;;845.20;1126.40;;;;;;4893137;29;20064;-76
2021/09/15 11:29:07;;;;;;;9.93;4.78;;;845.40;1126.40;;;;;;4898071;29;20380;-76
2021/09/15 11:31:38;;;;;;;10.60;5.65;;;845.50;1152.00;;;;;;4898984;29;20033;-75
2021/09/15 11:34:10;;;;;;;12.35;6.20;;;845.70;1126.40;;;;;;4899701;29;20393;-76
2021/09/15 11:36:36;;;;;;;9.07;5.32;;;845.70;1126.40;;;;;;4898865;29;20037;-75
2021/09/15 11:39:03;;;;;;;10.23;6.07;;;870.40;1126.40;;;;;;4895812;29;20028;-75
2021/09/15 11:41:29;;;;;;;7.68;5.72;;;845.70;1126.40;;;;;;4892267;29;20032;-75
2021/09/15 11:43:55;;;;;;;8.55;5.70;;;870.40;1126.40;;;;;;4890295;29;20382;-76
2021/09/15 11:46:31;;;;;;;10.55;4.90;;;845.70;1100.80;;;;;;4899326;29;20033;-75
2021/09/15 11:48:56;;;;;;;7.78;5.43;;;870.40;1126.40;;;;;;4882870;29;20096;-79
2021/09/15 11:51:25;;;;;;;9.13;5.20;;;870.40;1100.80;;;;;;4880757;29;20116;-76
2021/09/15 11:53:59;;;;;;;8.02;4.97;;;870.40;1100.80;;;;;;4880677;29;20021;-77
2021/09/15 11:56:52;;;;;;;6.75;5.43;;;870.50;1100.80;;;;;;4873857;29;20075;-77
2021/09/15 11:59:19;;;;;;;10.10;5.75;;;870.60;1100.80;;;;;;4893431;29;20040;-78
2021/09/15 12:01:46;;;;;;;6.60;5.00;;;870.50;1075.20;;;;;;4898993;29;20039;-75
2021/09/15 12:04:19;;;;;;;5.88;4.72;;;870.50;1075.20;;;;;;4899087;29;20450;-76
2021/09/15 12:06:48;;;;;;;12.23;4.93;;;870.60;1075.20;;;;;;4899173;29;20021;-76
2021/09/15 12:09:16;;;;;;;10.20;5.47;;;870.70;1075.20;;;;;;4899362;29;20039;-79
2021/09/15 12:11:48;;;;;;;8.63;5.30;;;870.80;1075.20;;;;;;4906031;29;20044;-76
2021/09/15 12:14:15;;;;;;;7.30;5.15;;;870.80;1075.20;;;;;;4911121;29;20024;-77
2021/09/15 12:16:42;;;;;;;6.68;5.07;;;870.70;1075.20;;;;;;4914375;29;20116;-76